Aransas Pass — WDF5061 — position and weather

sailwx.info

Track history (hours):
 
Tides and Currents Weather Stations Pressure Air Temp Water Temp Dewpoint Dewpoint Depression Visibility Wind Speed Wind Dir Waves Ship Positions

Aransas Pass

Owner: Higman Barge Lines, Inc., Orange, TX. More information available from US FCC via Universal Licensing System and Coast Guard Vessel Documentation Center.

Last reported at 2017-Apr-24 22:55 UTC. Time now 2017-Apr-29 23:27 UTC.
Position N 30°04' W 093°33'.

Length 26 m; draft 3 m.

Type: Towing. MMSI: 367458930.

Date/timePositionNaut miles runAvg speedWind from/ knotsBaromVisibWave heightAir tempDewpointWater temp
2017-Apr-24 22:55N 30°04' W 093°33'2 5.8
2017-Apr-24 22:30N 30°04' W 093°30'3 5.9
2017-Apr-24 22:00N 30°04' W 093°26'3 6.0
2017-Apr-24 21:31N 30°04' W 093°23'2 4.2
2017-Apr-24 21:01N 30°04' W 093°21'2 4.9
2017-Apr-24 20:30N 30°06' W 093°19'0 0.2
2017-Apr-24 20:00N 30°06' W 093°19'0 0.0
2017-Apr-24 19:31N 30°06' W 093°19'0 0.0
2017-Apr-24 19:00N 30°06' W 093°19'0 0.2
2017-Apr-24 18:30N 30°06' W 093°19'1 2.9
2017-Apr-24 18:00N 30°05' W 093°17'2 3.6
2017-Apr-24 17:30N 30°04' W 093°16'3 5.2
2017-Apr-24 17:00N 30°02' W 093°14'3 5.5
2017-Apr-24 16:30N 29°59' W 093°13'3 6.2
2017-Apr-24 15:59N 29°57' W 093°10'40 4.2
2017-Apr-24 06:34N 29°53' W 092°24'0 4.8
2017-Apr-24 06:30N 29°53' W 092°24'3 4.7
2017-Apr-24 05:54N 29°51' W 092°22'1 3.8
2017-Apr-24 05:30N 29°51' W 092°20'1 2.2
2017-Apr-24 05:00N 29°50' W 092°19'2 4.9
2017-Apr-24 04:31N 29°49' W 092°17'3 5.4
2017-Apr-24 04:00N 29°48' W 092°14'2 3.4
2017-Apr-24 03:31N 29°47' W 092°12'2 3.3
2017-Apr-24 03:00N 29°47' W 092°10'3 5.5
2017-Apr-24 02:30N 29°47' W 092°07'3 5.8
2017-Apr-24 02:00N 29°48' W 092°04'3 5.5
2017-Apr-24 01:30N 29°49' W 092°01'  
2017-Apr-16 09:47N 29°50' W 091°60'2 5.6
2017-Apr-16 09:30N 29°49' W 092°01'3 5.1
2017-Apr-16 09:00N 29°48' W 092°04'2 4.6
2017-Apr-16 08:30N 29°48' W 092°07'3 5.1
2017-Apr-16 08:01N 29°47' W 092°09'2 4.5
2017-Apr-16 07:30N 29°47' W 092°12'1 1.7
2017-Apr-16 07:00N 29°47' W 092°13'1 1.5
2017-Apr-16 06:30N 29°48' W 092°14'0 0.0
2017-Apr-16 06:00N 29°48' W 092°14'0 0.0
2017-Apr-16 05:30N 29°48' W 092°14'0 0.0
2017-Apr-16 05:00N 29°48' W 092°14'0 0.1
2017-Apr-16 04:30N 29°48' W 092°14'0 0.3
2017-Apr-16 04:00N 29°48' W 092°14'1 2.1
2017-Apr-16 03:30N 29°48' W 092°15'0 0.1
2017-Apr-16 03:00N 29°48' W 092°15'2 3.3
2017-Apr-16 02:30N 29°49' W 092°17'2 4.4
2017-Apr-16 02:01N 29°50' W 092°19'2 4.5
2017-Apr-16 01:30N 29°51' W 092°21'3 4.3
2017-Apr-16 00:48N 29°53' W 092°24'40 3.7
2017-Apr-15 13:55N 29°57' W 093°10'2 4.2
2017-Apr-15 13:30N 29°58' W 093°11'2 4.8
2017-Apr-15 13:00N 29°60' W 093°13'2 4.2
2017-Apr-15 12:31N 30°01' W 093°14'2 4.0
2017-Apr-15 12:00N 30°03' W 093°16'2 4.0
2017-Apr-15 11:30N 30°05' W 093°17'2 3.8
2017-Apr-15 11:00N 30°06' W 093°18'0 0.2
2017-Apr-15 10:30N 30°06' W 093°18'1 2.9
2017-Apr-15 10:00N 30°05' W 093°20'2 4.4
2017-Apr-15 09:30N 30°04' W 093°21'2 4.2
2017-Apr-15 09:00N 30°04' W 093°24'2 4.6
2017-Apr-15 08:30N 30°04' W 093°26'2 4.5
2017-Apr-15 08:00N 30°04' W 093°29'2 4.6
2017-Apr-15 07:30N 30°04' W 093°32'  
Track history (hours):
 
Tides and Currents Weather Stations Pressure Air Temp Water Temp Dewpoint Dewpoint Depression Visibility Wind Speed Wind Dir Waves Ship Positions

Aransas Pass

Owner: Higman Barge Lines, Inc., Orange, TX. More information available from US FCC via Universal Licensing System and Coast Guard Vessel Documentation Center.

Last reported at 2017-Apr-24 22:55 UTC. Time now 2017-Apr-29 23:27 UTC.
Position N 30°04' W 093°33'.

Length 26 m; draft 3 m.

Type: Towing. MMSI: 367458930.

Date/timePositionNaut miles runAvg speedWind from/ knotsBaromVisibWave heightAir tempDewpointWater temp
2017-Apr-24 22:55N 30°04' W 093°33'2 5.8
2017-Apr-24 22:30N 30°04' W 093°30'3 5.9
2017-Apr-24 22:00N 30°04' W 093°26'3 6.0
2017-Apr-24 21:31N 30°04' W 093°23'2 4.2
2017-Apr-24 21:01N 30°04' W 093°21'2 4.9
2017-Apr-24 20:30N 30°06' W 093°19'0 0.2
2017-Apr-24 20:00N 30°06' W 093°19'0 0.0
2017-Apr-24 19:31N 30°06' W 093°19'0 0.0
2017-Apr-24 19:00N 30°06' W 093°19'0 0.2
2017-Apr-24 18:30N 30°06' W 093°19'1 2.9
2017-Apr-24 18:00N 30°05' W 093°17'2 3.6
2017-Apr-24 17:30N 30°04' W 093°16'3 5.2
2017-Apr-24 17:00N 30°02' W 093°14'3 5.5
2017-Apr-24 16:30N 29°59' W 093°13'3 6.2
2017-Apr-24 15:59N 29°57' W 093°10'40 4.2
2017-Apr-24 06:34N 29°53' W 092°24'0 4.8
2017-Apr-24 06:30N 29°53' W 092°24'3 4.7
2017-Apr-24 05:54N 29°51' W 092°22'1 3.8
2017-Apr-24 05:30N 29°51' W 092°20'1 2.2
2017-Apr-24 05:00N 29°50' W 092°19'2 4.9
2017-Apr-24 04:31N 29°49' W 092°17'3 5.4
2017-Apr-24 04:00N 29°48' W 092°14'2 3.4
2017-Apr-24 03:31N 29°47' W 092°12'2 3.3
2017-Apr-24 03:00N 29°47' W 092°10'3 5.5
2017-Apr-24 02:30N 29°47' W 092°07'3 5.8
2017-Apr-24 02:00N 29°48' W 092°04'3 5.5
2017-Apr-24 01:30N 29°49' W 092°01'  
2017-Apr-16 09:47N 29°50' W 091°60'2 5.6
2017-Apr-16 09:30N 29°49' W 092°01'3 5.1
2017-Apr-16 09:00N 29°48' W 092°04'2 4.6
2017-Apr-16 08:30N 29°48' W 092°07'3 5.1
2017-Apr-16 08:01N 29°47' W 092°09'2 4.5
2017-Apr-16 07:30N 29°47' W 092°12'1 1.7
2017-Apr-16 07:00N 29°47' W 092°13'1 1.5
2017-Apr-16 06:30N 29°48' W 092°14'0 0.0
2017-Apr-16 06:00N 29°48' W 092°14'0 0.0
2017-Apr-16 05:30N 29°48' W 092°14'0 0.0
2017-Apr-16 05:00N 29°48' W 092°14'0 0.1
2017-Apr-16 04:30N 29°48' W 092°14'0 0.3
2017-Apr-16 04:00N 29°48' W 092°14'1 2.1
2017-Apr-16 03:30N 29°48' W 092°15'0 0.1
2017-Apr-16 03:00N 29°48' W 092°15'2 3.3
2017-Apr-16 02:30N 29°49' W 092°17'2 4.4
2017-Apr-16 02:01N 29°50' W 092°19'2 4.5
2017-Apr-16 01:30N 29°51' W 092°21'3 4.3
2017-Apr-16 00:48N 29°53' W 092°24'40 3.7
2017-Apr-15 13:55N 29°57' W 093°10'2 4.2
2017-Apr-15 13:30N 29°58' W 093°11'2 4.8
2017-Apr-15 13:00N 29°60' W 093°13'2 4.2
2017-Apr-15 12:31N 30°01' W 093°14'2 4.0
2017-Apr-15 12:00N 30°03' W 093°16'2 4.0
2017-Apr-15 11:30N 30°05' W 093°17'2 3.8
2017-Apr-15 11:00N 30°06' W 093°18'0 0.2
2017-Apr-15 10:30N 30°06' W 093°18'1 2.9
2017-Apr-15 10:00N 30°05' W 093°20'2 4.4
2017-Apr-15 09:30N 30°04' W 093°21'2 4.2
2017-Apr-15 09:00N 30°04' W 093°24'2 4.6
2017-Apr-15 08:30N 30°04' W 093°26'2 4.5
2017-Apr-15 08:00N 30°04' W 093°29'2 4.6
2017-Apr-15 07:30N 30°04' W 093°32'  

Dump ship's entire track history